createdAt,value
2023-05-18T00:02:21.981Z,85163.44
2023-05-18T00:04:49.198Z,85393.38
2023-05-18T00:07:16.231Z,85219.13
2023-05-18T00:09:43.315Z,85194.22
2023-05-18T00:12:10.663Z,85276.13
2023-05-18T00:14:37.804Z,85388.47
2023-05-18T00:17:05.075Z,85261.16
2023-05-18T00:19:32.325Z,85220.25
2023-05-18T00:21:59.457Z,85396.03
2023-05-18T00:24:26.640Z,85352.97
2023-05-18T00:26:53.788Z,85230.31
2023-05-18T00:29:20.955Z,85259.81
2023-05-18T00:31:48.237Z,85319.81
2023-05-18T00:34:16.216Z,85351.06
2023-05-18T00:36:43.434Z,85377.16
2023-05-18T00:39:10.522Z,85405.91
2023-05-18T00:41:37.753Z,85363.53
2023-05-18T00:44:05.236Z,85421.59
2023-05-18T00:46:33.006Z,85228.63
2023-05-18T00:49:02.305Z,85272.13
2023-05-18T00:51:30.174Z,85353.88
2023-05-18T00:54:00.384Z,85381.31
2023-05-18T00:56:28.754Z,85409.66
2023-05-18T00:58:57.491Z,85412.47
2023-05-18T01:01:30.063Z,85387.78
2023-05-18T01:04:04.260Z,85350.91
2023-05-18T01:06:42.062Z,85405.41
2023-05-18T01:09:13.906Z,85339.97
2023-05-18T01:11:46.670Z,85286.16
2023-05-18T01:14:30.728Z,85131.19
2023-05-18T01:17:22.122Z,85398.66
2023-05-18T01:19:52.594Z,85394.50
2023-05-18T01:22:43.109Z,85369.84
2023-05-18T01:25:30.087Z,85338.44
2023-05-18T01:28:06.635Z,85345.28
2023-05-18T01:30:36.332Z,85257.34
2023-05-18T01:33:11.035Z,85299.03
2023-05-18T01:35:38.500Z,85395.25
2023-05-18T01:38:05.607Z,85366.03
2023-05-18T01:40:37.874Z,85398.06
2023-05-18T01:43:13.831Z,85396.69
2023-05-18T01:45:47.315Z,85357.31
2023-05-18T01:48:21.292Z,85308.81
2023-05-18T01:50:49.297Z,85395.41
2023-05-18T01:53:25.206Z,85404.19
2023-05-18T01:55:54.711Z,85411.13
2023-05-18T01:58:22.971Z,85334.72
2023-05-18T02:00:50.730Z,85379.03
2023-05-18T02:03:17.971Z,85406.97
2023-05-18T02:05:45.122Z,85412.53
2023-05-18T02:08:12.836Z,85396.03
2023-05-18T02:10:40.079Z,85402.72
2023-05-18T02:13:08.051Z,85395.31
2023-05-18T02:15:35.922Z,85402.16
2023-05-18T02:18:03.355Z,85221.44
2023-05-18T02:20:33.783Z,85245.88
2023-05-18T02:23:01.078Z,85333.88
2023-05-18T02:25:29.051Z,85315.06
2023-05-18T02:27:57.759Z,85300.66
2023-05-18T02:30:24.961Z,85364.28
2023-05-18T02:32:52.220Z,85330.50
2023-05-18T02:35:19.413Z,85400.19
2023-05-18T02:37:47.531Z,85332.31
2023-05-18T02:40:16.313Z,85404.53
2023-05-18T02:42:44.022Z,85335.19
2023-05-18T02:45:12.210Z,85355.72
2023-05-18T02:47:44.262Z,85399.38
2023-05-18T02:50:12.175Z,85391.25
2023-05-18T02:52:40.296Z,85426.16
2023-05-18T02:55:07.664Z,85400.13
2023-05-18T02:57:57.362Z,85425.34
2023-05-18T03:00:40.060Z,85340.25
2023-05-18T03:03:11.100Z,85348.50
2023-05-18T03:05:38.355Z,85354.78
2023-05-18T03:08:07.119Z,85428.63
2023-05-18T03:10:34.351Z,85385.78
2023-05-18T03:13:01.612Z,85399.97
2023-05-18T03:15:31.860Z,85370.72
2023-05-18T03:18:02.348Z,85411.06
2023-05-18T03:20:31.804Z,85348.34
2023-05-18T03:22:58.938Z,85430.34
2023-05-18T03:25:26.724Z,85359.28
2023-05-18T03:28:01.124Z,85433.16
2023-05-18T03:30:28.735Z,85434.53
2023-05-18T03:32:56.833Z,85446.38
2023-05-18T03:35:24.064Z,85417.41
2023-05-18T03:37:51.219Z,85407.91
2023-05-18T03:40:19.616Z,85411.47
2023-05-18T03:42:47.486Z,85374.34
2023-05-18T03:45:14.699Z,85308.88
2023-05-18T03:47:43.244Z,85361.00
2023-05-18T03:50:10.950Z,85404.72
2023-05-18T03:52:39.404Z,85379.81
2023-05-18T03:55:07.867Z,85288.91
2023-05-18T03:57:34.974Z,85319.06
2023-05-18T04:00:12.001Z,85383.72
2023-05-18T04:02:45.158Z,85396.97
2023-05-18T04:05:15.533Z,85414.56
2023-05-18T04:07:46.487Z,85308.16
2023-05-18T04:10:14.446Z,85448.03
2023-05-18T04:12:43.187Z,85278.69
2023-05-18T04:15:14.776Z,85385.75
2023-05-18T04:17:47.531Z,85417.09
2023-05-18T04:20:14.976Z,85400.22
2023-05-18T04:22:44.030Z,85348.19
2023-05-18T04:25:11.908Z,85451.22
2023-05-18T04:27:40.227Z,85463.63
2023-05-18T04:30:08.868Z,85400.84
2023-05-18T04:32:36.714Z,85448.72
2023-05-18T04:35:08.187Z,85316.47
2023-05-18T04:37:35.401Z,85373.75
2023-05-18T04:40:07.571Z,85264.38
2023-05-18T04:42:38.432Z,85399.31
2023-05-18T04:45:06.196Z,85271.03
2023-05-18T04:47:34.546Z,85301.16
2023-05-18T04:50:02.357Z,85361.69
2023-05-18T04:52:31.042Z,85464.56
2023-05-18T04:54:58.177Z,85457.81
2023-05-18T04:57:28.771Z,85380.81
2023-05-18T04:59:55.867Z,85418.72
2023-05-18T05:02:23.084Z,85425.53
2023-05-18T05:04:50.241Z,85471.09
2023-05-18T05:07:20.025Z,85449.88
2023-05-18T05:09:47.419Z,85377.38
2023-05-18T05:12:14.469Z,85472.25
2023-05-18T05:14:41.531Z,85397.06
2023-05-18T05:17:08.709Z,85410.81
2023-05-18T05:19:35.820Z,85484.38
2023-05-18T05:22:02.953Z,85444.03
2023-05-18T05:24:30.125Z,85297.25
2023-05-18T05:26:57.274Z,85344.25
2023-05-18T05:29:26.559Z,85466.56
2023-05-18T05:31:54.029Z,85437.06
2023-05-18T05:34:21.128Z,85484.56
2023-05-18T05:36:48.498Z,85469.41
2023-05-18T05:39:15.794Z,85489.00
2023-05-18T05:41:43.114Z,85449.34
2023-05-18T05:44:11.676Z,85376.78
2023-05-18T05:46:39.010Z,85524.88
2023-05-18T05:49:08.446Z,85448.00
2023-05-18T05:51:35.771Z,85497.16
2023-05-18T05:54:11.008Z,85423.59
2023-05-18T05:56:38.582Z,85501.88
2023-05-18T05:59:05.706Z,85426.13
2023-05-18T06:01:32.885Z,85470.59
2023-05-18T06:03:59.973Z,85452.00
2023-05-18T06:06:27.758Z,85438.31
2023-05-18T06:08:54.901Z,85457.31
2023-05-18T06:11:22.852Z,85468.63
2023-05-18T06:13:50.239Z,85495.03
2023-05-18T06:16:17.531Z,85316.91
2023-05-18T06:18:44.760Z,85457.56
2023-05-18T06:21:11.890Z,85509.22
2023-05-18T06:23:41.693Z,85489.94
2023-05-18T06:26:23.134Z,85482.59
2023-05-18T06:29:01.555Z,85515.97
2023-05-18T06:31:32.620Z,85525.50
2023-05-18T06:34:07.662Z,85502.28
2023-05-18T06:36:35.350Z,85440.00
2023-05-18T06:39:02.437Z,85491.84
2023-05-18T06:41:29.575Z,85495.22
2023-05-18T06:44:00.374Z,85493.84
2023-05-18T06:46:35.890Z,85459.47
2023-05-18T06:49:09.045Z,85529.16
2023-05-18T06:51:36.111Z,85517.66
2023-05-18T06:54:04.546Z,85501.63
2023-05-18T06:56:31.581Z,85531.53
2023-05-18T06:59:00.269Z,85543.28
2023-05-18T07:01:30.102Z,85545.28
2023-05-18T07:04:00.652Z,85530.22
2023-05-18T07:06:28.255Z,85545.78
2023-05-18T07:08:56.434Z,85498.81
2023-05-18T07:11:23.676Z,85549.19
2023-05-18T07:13:50.736Z,85445.44
2023-05-18T07:16:17.983Z,85502.22
2023-05-18T07:18:45.173Z,85536.78
2023-05-18T07:21:12.501Z,85531.28
2023-05-18T07:23:39.660Z,85516.16
2023-05-18T07:26:10.309Z,85434.66
2023-05-18T07:28:37.485Z,85547.34
2023-05-18T07:31:05.456Z,85495.25
2023-05-18T07:33:33.102Z,85453.19
2023-05-18T07:36:00.158Z,85432.88
2023-05-18T07:38:27.550Z,85490.03
2023-05-18T07:40:54.637Z,85554.22
2023-05-18T07:43:21.721Z,85502.28
2023-05-18T07:45:48.814Z,85521.84
2023-05-18T07:48:16.024Z,85538.78
2023-05-18T07:50:43.140Z,85448.91
2023-05-18T07:53:10.440Z,85559.13
2023-05-18T07:55:37.596Z,85561.66
2023-05-18T07:58:04.877Z,85550.34
2023-05-18T08:00:32.041Z,85536.81
2023-05-18T08:03:01.010Z,85550.72
2023-05-18T08:05:28.490Z,85495.56
2023-05-18T08:07:55.781Z,85515.75
2023-05-18T08:10:23.048Z,85423.59
2023-05-18T08:12:50.063Z,85399.56
2023-05-18T08:15:17.299Z,85494.47
2023-05-18T08:17:44.512Z,85552.53
2023-05-18T08:20:12.070Z,85519.00
2023-05-18T08:22:39.208Z,85566.81
2023-05-18T08:25:07.116Z,85556.44
2023-05-18T08:27:34.314Z,85573.75
2023-05-18T08:30:01.903Z,85553.03
2023-05-18T08:32:29.103Z,85556.53
2023-05-18T08:34:56.301Z,85527.34
2023-05-18T08:37:29.637Z,85529.47
2023-05-18T08:39:57.461Z,85587.16
2023-05-18T08:42:50.474Z,85442.31
2023-05-18T08:45:39.325Z,85614.25
2023-05-18T08:48:07.955Z,85435.53
2023-05-18T08:50:36.272Z,85559.91
2023-05-18T08:53:06.811Z,85486.59
2023-05-18T08:55:37.725Z,85563.22
2023-05-18T08:58:13.571Z,85592.13
2023-05-18T09:00:41.213Z,85520.22
2023-05-18T09:03:09.367Z,85640.44
2023-05-18T09:05:36.649Z,85587.66
2023-05-18T09:08:06.147Z,85649.28
2023-05-18T09:10:34.345Z,85640.66
2023-05-18T09:13:05.504Z,85586.78
2023-05-18T09:15:35.936Z,85662.84
2023-05-18T09:18:12.684Z,85627.59
2023-05-18T09:20:40.112Z,85473.56
2023-05-18T09:23:07.427Z,85577.66
2023-05-18T09:25:37.080Z,85668.72
2023-05-18T09:28:05.271Z,85673.03
2023-05-18T09:30:40.630Z,85623.16
2023-05-18T09:33:19.459Z,85526.44
2023-05-18T09:35:47.376Z,85704.09
2023-05-18T09:38:23.410Z,85608.47
2023-05-18T09:40:51.002Z,85603.03
2023-05-18T09:43:19.363Z,85659.66
2023-05-18T09:45:49.007Z,85703.31
2023-05-18T09:48:16.909Z,85708.13
2023-05-18T09:50:45.353Z,85690.53
2023-05-18T09:53:14.258Z,85668.69
2023-05-18T09:55:49.564Z,85556.63
2023-05-18T09:58:17.128Z,85670.22
2023-05-18T10:00:51.951Z,85624.94
2023-05-18T10:03:23.223Z,85723.63
2023-05-18T10:05:51.087Z,85729.09
2023-05-18T10:08:18.399Z,85649.56
2023-05-18T10:10:48.024Z,85713.44
2023-05-18T10:13:21.259Z,85715.44
2023-05-18T10:15:57.970Z,85719.66
2023-05-18T10:18:35.784Z,85711.31
2023-05-18T10:21:07.184Z,85715.50
2023-05-18T10:23:35.792Z,85678.72
2023-05-18T10:26:10.431Z,85696.63
2023-05-18T10:28:45.932Z,85719.78
2023-05-18T10:31:15.591Z,85726.81
2023-05-18T10:33:44.204Z,85682.28
2023-05-18T10:36:11.981Z,85707.47
2023-05-18T10:38:40.132Z,85728.75
2023-05-18T10:41:08.347Z,85572.06
2023-05-18T10:43:36.786Z,85729.28
2023-05-18T10:46:08.098Z,85653.88
2023-05-18T10:48:41.843Z,85644.44
2023-05-18T10:51:09.460Z,85514.84
2023-05-18T10:53:37.184Z,85708.78
2023-05-18T10:56:04.534Z,85612.22
2023-05-18T10:58:40.507Z,85454.25
2023-05-18T11:01:12.021Z,85521.28
2023-05-18T11:03:41.322Z,85734.81
2023-05-18T11:06:11.876Z,85731.69
2023-05-18T11:08:51.464Z,85728.41
2023-05-18T11:11:23.633Z,85576.63
2023-05-18T11:13:54.394Z,85744.56
2023-05-18T11:16:42.320Z,85745.75
2023-05-18T11:19:12.923Z,85704.13
2023-05-18T11:21:41.886Z,85738.13
2023-05-18T11:24:18.864Z,85744.72
2023-05-18T11:26:48.628Z,85717.28
2023-05-18T11:29:40.164Z,85744.31
2023-05-18T11:32:30.500Z,85743.00
2023-05-18T11:34:59.593Z,85751.41
2023-05-18T11:37:38.624Z,85749.81
2023-05-18T11:40:11.283Z,85751.16
2023-05-18T11:42:38.930Z,85684.00
2023-05-18T11:45:10.752Z,85693.66
2023-05-18T11:47:49.738Z,85750.28
2023-05-18T11:50:18.003Z,85749.59
2023-05-18T11:52:50.052Z,85755.72
2023-05-18T11:55:19.990Z,85753.72
2023-05-18T11:57:53.141Z,85724.19
2023-05-18T12:00:21.180Z,85657.19
2023-05-18T12:02:49.364Z,85733.03
2023-05-18T12:05:17.462Z,85725.78
2023-05-18T12:07:45.691Z,85720.56
2023-05-18T12:10:17.801Z,85751.41
2023-05-18T12:12:52.612Z,85752.59
2023-05-18T12:15:23.182Z,85753.44
2023-05-18T12:17:51.564Z,85748.84
2023-05-18T12:20:20.904Z,85688.28
2023-05-18T12:22:55.156Z,85694.34
2023-05-18T12:25:24.591Z,85688.03
2023-05-18T12:27:53.856Z,85709.81
2023-05-18T12:30:23.777Z,85754.97
2023-05-18T12:32:56.353Z,85749.28
2023-05-18T12:35:24.488Z,85696.66
2023-05-18T12:37:52.029Z,85657.81
2023-05-18T12:40:20.376Z,85585.50
2023-05-18T12:43:04.484Z,85578.31
2023-05-18T12:45:33.212Z,85578.38
2023-05-18T12:48:06.245Z,85721.13
2023-05-18T12:50:33.408Z,85706.09
2023-05-18T12:53:02.005Z,85660.41
2023-05-18T12:55:31.199Z,85713.97
2023-05-18T12:58:19.099Z,85701.44
2023-05-18T13:00:48.356Z,85692.00
2023-05-18T13:03:17.461Z,85719.09
2023-05-18T13:05:46.395Z,85747.88
2023-05-18T13:08:22.268Z,85776.59
2023-05-18T13:11:01.297Z,85745.38
2023-05-18T13:13:28.853Z,85632.53
2023-05-18T13:15:56.485Z,85755.63
2023-05-18T13:18:23.689Z,85727.50
2023-05-18T13:20:53.711Z,85780.19
2023-05-18T13:23:29.355Z,85749.59
2023-05-18T13:25:58.674Z,85783.69
2023-05-18T13:28:27.247Z,85788.78
2023-05-18T13:30:54.796Z,85673.66
2023-05-18T13:33:21.907Z,85761.22
2023-05-18T13:35:50.235Z,85800.59
2023-05-18T13:38:17.695Z,85694.56
2023-05-18T13:40:46.610Z,85712.22
2023-05-18T13:43:14.076Z,85694.50
2023-05-18T13:45:42.379Z,85786.25
2023-05-18T13:48:10.925Z,85751.88
2023-05-18T13:50:42.593Z,85752.75
2023-05-18T13:53:09.851Z,85777.50
2023-05-18T13:55:37.251Z,85739.28
2023-05-18T13:58:04.363Z,85698.91
2023-05-18T14:00:33.992Z,85798.81
2023-05-18T14:03:01.550Z,85720.78
2023-05-18T14:05:29.188Z,85790.72
2023-05-18T14:07:56.995Z,85751.16
2023-05-18T14:10:24.314Z,85735.41
2023-05-18T14:12:51.469Z,85793.63
2023-05-18T14:15:18.491Z,85812.84
2023-05-18T14:17:45.650Z,85602.31
2023-05-18T14:20:13.150Z,85793.56
2023-05-18T14:22:40.592Z,85795.59
2023-05-18T14:25:08.106Z,85723.94
2023-05-18T14:27:35.298Z,85732.13
2023-05-18T14:30:02.670Z,85745.19
2023-05-18T14:32:29.993Z,85791.56
2023-05-18T14:34:58.332Z,85803.66
2023-05-18T14:37:26.199Z,85830.53
2023-05-18T14:39:53.308Z,85797.19
2023-05-18T14:42:20.323Z,85718.75
2023-05-18T14:44:47.421Z,85808.00
2023-05-18T14:47:14.811Z,85745.78
2023-05-18T14:49:42.149Z,85733.53
2023-05-18T14:52:09.309Z,85766.34
2023-05-18T14:54:36.876Z,85755.31
2023-05-18T14:57:04.690Z,85804.56
2023-05-18T14:59:31.905Z,85782.19
2023-05-18T15:01:59.053Z,85729.44
2023-05-18T15:04:26.252Z,85815.81
2023-05-18T15:06:53.589Z,85696.53
2023-05-18T15:09:20.810Z,85810.06
2023-05-18T15:11:47.938Z,85797.75
2023-05-18T15:14:15.344Z,85796.28
2023-05-18T15:16:46.839Z,85751.22
2023-05-18T15:19:14.006Z,85775.97
2023-05-18T15:21:41.188Z,85807.47
2023-05-18T15:24:08.382Z,85743.13
2023-05-18T15:26:35.922Z,85798.13
2023-05-18T15:29:02.958Z,85772.06
2023-05-18T15:31:30.093Z,85791.53
2023-05-18T15:33:57.249Z,85729.72
2023-05-18T15:36:24.496Z,85760.53
2023-05-18T15:38:51.555Z,85782.34
2023-05-18T15:41:19.407Z,85784.97
2023-05-18T15:43:46.908Z,85809.09
2023-05-18T15:46:14.067Z,85815.34
2023-05-18T15:48:41.190Z,85750.41
2023-05-18T15:51:08.313Z,85806.63
2023-05-18T15:53:35.477Z,85715.38
2023-05-18T15:56:02.709Z,85622.00
2023-05-18T15:58:29.942Z,85779.88
2023-05-18T16:00:57.531Z,85785.38
2023-05-18T16:03:24.898Z,85827.28
2023-05-18T16:05:52.162Z,85828.69
2023-05-18T16:08:20.664Z,85763.13
2023-05-18T16:10:47.678Z,85757.72
2023-05-18T16:13:15.365Z,85779.66
2023-05-18T16:15:42.522Z,85808.38
2023-05-18T16:18:09.742Z,85829.06
2023-05-18T16:20:36.990Z,85856.53
2023-05-18T16:23:04.207Z,85814.44
2023-05-18T16:25:32.882Z,85855.56
2023-05-18T16:28:00.012Z,85774.66
2023-05-18T16:30:27.388Z,85739.06
2023-05-18T16:32:54.691Z,85832.94
2023-05-18T16:35:21.852Z,85740.47
2023-05-18T16:37:48.895Z,85868.59
2023-05-18T16:40:16.051Z,85832.50
2023-05-18T16:42:47.422Z,85804.91
2023-05-18T16:45:15.202Z,85745.97
2023-05-18T16:47:42.512Z,85813.97
2023-05-18T16:50:10.408Z,85877.72
2023-05-18T16:52:37.581Z,85873.50
2023-05-18T16:55:04.946Z,85799.72
2023-05-18T16:57:34.050Z,85857.16
2023-05-18T17:00:01.372Z,85797.59
2023-05-18T17:02:28.967Z,85857.28
2023-05-18T17:04:56.334Z,85834.03
2023-05-18T17:07:23.472Z,85741.63
2023-05-18T17:09:50.653Z,85814.09
2023-05-18T17:12:17.656Z,85886.03
2023-05-18T17:14:44.680Z,85804.53
2023-05-18T17:17:12.036Z,85891.63
2023-05-18T17:19:39.963Z,85843.56
2023-05-18T17:22:07.126Z,85849.41
2023-05-18T17:24:34.181Z,85893.13
2023-05-18T17:27:01.848Z,85802.66
2023-05-18T17:29:29.097Z,85795.84
2023-05-18T17:31:59.366Z,85869.16
2023-05-18T17:34:30.796Z,85849.97
2023-05-18T17:36:58.868Z,85898.78
2023-05-18T17:39:26.475Z,85791.84
2023-05-18T17:41:54.527Z,85882.25
2023-05-18T17:44:21.759Z,85700.03
2023-05-18T17:46:49.195Z,85745.31
2023-05-18T17:49:16.432Z,85820.63
2023-05-18T17:51:44.078Z,85809.00
2023-05-18T17:54:11.665Z,85728.88
2023-05-18T17:56:39.186Z,85752.31
2023-05-18T17:59:06.931Z,85800.13
2023-05-18T18:01:34.607Z,85886.53
2023-05-18T18:04:02.178Z,85849.28
2023-05-18T18:06:29.547Z,85749.94
2023-05-18T18:08:58.607Z,85845.84
2023-05-18T18:11:26.979Z,85842.63
2023-05-18T18:13:54.695Z,85768.66
2023-05-18T18:16:22.563Z,85804.44
2023-05-18T18:18:50.788Z,85869.50
2023-05-18T18:21:18.301Z,85821.72
2023-05-18T18:23:45.403Z,85682.81
2023-05-18T18:26:12.910Z,85857.59
2023-05-18T18:28:40.143Z,85807.63
2023-05-18T18:31:07.459Z,85637.94
2023-05-18T18:33:34.895Z,85899.72
2023-05-18T18:36:04.041Z,85861.31
2023-05-18T18:38:31.449Z,85842.19
2023-05-18T18:41:01.911Z,85827.19
2023-05-18T18:43:29.229Z,85821.63
2023-05-18T18:45:57.494Z,85708.75
2023-05-18T18:48:25.707Z,85913.75
2023-05-18T18:50:53.523Z,85830.88
2023-05-18T18:53:20.731Z,85794.59
2023-05-18T18:55:48.499Z,85923.56
2023-05-18T18:58:16.022Z,85872.13
2023-05-18T19:00:43.945Z,85841.25
2023-05-18T19:03:11.125Z,85885.25
2023-05-18T19:05:39.158Z,85941.47
2023-05-18T19:08:06.445Z,85896.81
2023-05-18T19:10:34.503Z,85937.41
2023-05-18T19:13:05.864Z,85859.09
2023-05-18T19:15:34.761Z,85943.56
2023-05-18T19:18:02.540Z,85935.91
2023-05-18T19:20:31.412Z,85851.50
2023-05-18T19:22:58.688Z,85865.91
2023-05-18T19:25:29.235Z,85827.50
2023-05-18T19:27:56.637Z,85786.41
2023-05-18T19:30:23.856Z,85939.47
2023-05-18T19:32:52.819Z,85912.72
2023-05-18T19:35:21.313Z,85948.69
2023-05-18T19:37:48.556Z,85883.28
2023-05-18T19:40:16.937Z,85897.78
2023-05-18T19:42:44.596Z,85958.28
2023-05-18T19:45:11.759Z,85923.97
2023-05-18T19:47:38.949Z,85788.13
2023-05-18T19:50:08.274Z,85885.47
2023-05-18T19:52:35.326Z,85945.19
2023-05-18T19:55:04.070Z,85765.34
2023-05-18T19:57:31.130Z,85688.50
2023-05-18T19:59:58.265Z,85941.69
2023-05-18T20:02:25.794Z,85874.50
2023-05-18T20:05:00.609Z,85944.44
2023-05-18T20:07:28.316Z,85910.22
2023-05-18T20:09:55.874Z,85941.75
2023-05-18T20:12:23.079Z,85787.44
2023-05-18T20:14:51.440Z,85914.28
2023-05-18T20:17:18.866Z,85956.88
2023-05-18T20:19:50.858Z,85980.38
2023-05-18T20:22:18.615Z,85965.88
2023-05-18T20:24:46.216Z,85779.88
2023-05-18T20:27:14.987Z,85961.00
2023-05-18T20:29:42.674Z,85926.63
2023-05-18T20:32:10.132Z,85961.00
2023-05-18T20:34:37.385Z,85962.34
2023-05-18T20:37:05.692Z,85969.25
2023-05-18T20:39:33.066Z,85913.63
2023-05-18T20:42:00.437Z,85961.03
2023-05-18T20:44:28.975Z,85976.13
2023-05-18T20:46:56.121Z,85971.97
2023-05-18T20:49:25.092Z,85884.00
2023-05-18T20:51:52.467Z,85960.22
2023-05-18T20:54:21.488Z,85970.75
2023-05-18T20:56:49.159Z,85921.91
2023-05-18T20:59:16.473Z,85967.88
2023-05-18T21:01:43.710Z,85968.56
2023-05-18T21:04:13.191Z,85893.72
2023-05-18T21:06:41.165Z,85979.59
2023-05-18T21:09:08.406Z,85958.28
2023-05-18T21:11:35.663Z,85899.28
2023-05-18T21:14:02.808Z,85985.75
2023-05-18T21:16:29.944Z,85987.16
2023-05-18T21:18:57.385Z,85934.88
2023-05-18T21:21:24.558Z,85803.78
2023-05-18T21:23:51.854Z,85944.47
2023-05-18T21:26:18.963Z,85919.75
2023-05-18T21:28:49.120Z,85966.47
2023-05-18T21:31:16.709Z,85947.47
2023-05-18T21:33:48.149Z,85774.31
2023-05-18T21:36:16.638Z,85934.81
2023-05-18T21:38:43.782Z,85911.41
2023-05-18T21:41:12.092Z,85976.09
2023-05-18T21:43:39.174Z,85873.09
2023-05-18T21:46:09.185Z,85735.28
2023-05-18T21:48:36.641Z,85895.72
2023-05-18T21:51:04.825Z,85889.63
2023-05-18T21:53:31.865Z,85807.91
2023-05-18T21:55:58.930Z,85808.00
2023-05-18T21:58:25.955Z,85965.94
2023-05-18T22:00:53.047Z,85973.41
2023-05-18T22:03:20.168Z,85864.13
2023-05-18T22:05:47.439Z,85966.53
2023-05-18T22:08:14.458Z,85972.13
2023-05-18T22:10:41.860Z,85967.97
2023-05-18T22:13:09.581Z,85924.06
2023-05-18T22:15:37.427Z,85902.16
2023-05-18T22:18:04.823Z,85911.72
2023-05-18T22:20:32.709Z,85971.47
2023-05-18T22:23:00.211Z,85957.09
2023-05-18T22:25:27.453Z,85883.56
2023-05-18T22:27:54.647Z,85777.19
2023-05-18T22:30:23.863Z,85924.03
2023-05-18T22:32:52.035Z,85907.59
2023-05-18T22:35:19.198Z,85973.50
2023-05-18T22:37:46.779Z,85952.84
2023-05-18T22:40:19.668Z,85840.25
2023-05-18T22:42:46.799Z,85941.75
2023-05-18T22:45:14.136Z,85924.00
2023-05-18T22:47:41.641Z,85974.06
2023-05-18T22:50:09.461Z,85923.41
2023-05-18T22:52:36.912Z,85976.97
2023-05-18T22:55:05.801Z,85979.00
2023-05-18T22:57:32.858Z,85755.31
2023-05-18T22:59:59.909Z,85937.13
2023-05-18T23:02:27.474Z,85974.88
2023-05-18T23:04:54.663Z,85868.41
2023-05-18T23:07:24.697Z,85907.50
2023-05-18T23:09:52.386Z,85795.03
2023-05-18T23:12:20.510Z,85971.38
2023-05-18T23:14:49.924Z,85956.97
2023-05-18T23:17:18.977Z,85890.31
2023-05-18T23:19:52.784Z,85963.13
2023-05-18T23:22:20.252Z,85936.38
2023-05-18T23:24:49.607Z,85920.53
2023-05-18T23:27:16.895Z,85908.41
2023-05-18T23:29:44.787Z,85849.25
2023-05-18T23:32:12.070Z,85853.38
2023-05-18T23:34:39.447Z,85860.28
2023-05-18T23:37:06.957Z,85908.47
2023-05-18T23:39:34.761Z,85863.75
2023-05-18T23:42:02.836Z,85756.72
2023-05-18T23:44:30.290Z,85948.84
2023-05-18T23:46:57.774Z,85943.34
2023-05-18T23:49:25.467Z,85836.19
2023-05-18T23:51:53.697Z,85851.38
2023-05-18T23:54:21.367Z,85944.69
2023-05-18T23:56:50.697Z,85903.53
2023-05-18T23:59:18.753Z,85782.13
